Airfield :
LOGIN :

Register | Disclaimer

   EN    FR    IT 

 










Legend :    VFR   Marginal VFR   IFR   Intensive IFR   Very Intensive IFR
Visi :
Ceiling :
>= 8 km
>= 3000ft
5 to 8 km
1000 to 3000 ft
1500m to 5 km
500 to 1000 ft
800 to 1500m
200 to 500 ft
< 800m
< 200 ft
Symbols :   Thunderstorms  Fog  Heavy snow  Heavy precipitations  Wind > 20 kt
SIGMETs :     Misc.  Thunderstorms  Icing  Turbulence  Mountain Waves  Volcanic Ashes







- Airport Elevation : 602 ft
- IATA code : NVS
- Download approach charts


LFQG - Nevers

CURRENT METAR :
  • 211200Z AUTO VRB03KT CAVOK 25/12 Q1023

EXPIRED METARs :
  • 211130Z AUTO VRB02KT CAVOK 24/12 Q1023
  • 211100Z AUTO VRB03KT CAVOK 23/12 Q1023
  • 211030Z AUTO VRB02KT CAVOK 23/12 Q1023
  • 211000Z AUTO 13003KT 080V170 CAVOK 23/11 Q1024
  • 210930Z AUTO 21003KT 140V270 9999 FEW038 22/12 Q1024

TAF N/A
No reported NOTAMs for that airfield.



MET'MAP, your aeronautical weather chart ! - Copyright ORBIFLY December 2007 - Disclaimer

ORBIFLY MET'MAP TEAM :

Programming & Development : Alexandra Zaïnal
Concept & Development : Baudouin d'Aumeries
Co-Development & Prog : Marc-Olivier Méhu
Technical & hardware support : Manuel Goepfert

Contact : metmap@orbifly.com




SOURCES & CREDITS :

   NOAA